createdAt,value
2023-05-02T00:02:28.217Z,2.97
2023-05-02T00:04:56.747Z,2.85
2023-05-02T00:07:26.682Z,3.00
2023-05-02T00:09:54.966Z,2.90
2023-05-02T00:12:26.044Z,2.72
2023-05-02T00:14:53.854Z,3.17
2023-05-02T00:17:22.065Z,2.78
2023-05-02T00:19:49.851Z,2.70
2023-05-02T00:22:18.098Z,2.90
2023-05-02T00:24:45.844Z,3.03
2023-05-02T00:27:14.437Z,3.05
2023-05-02T00:29:42.185Z,3.00
2023-05-02T00:32:10.349Z,4.90
2023-05-02T00:34:38.211Z,3.17
2023-05-02T00:37:06.426Z,3.80
2023-05-02T00:39:37.529Z,3.00
2023-05-02T00:42:06.329Z,2.90
2023-05-02T00:44:34.105Z,3.22
2023-05-02T00:47:02.327Z,2.85
2023-05-02T00:49:31.220Z,2.95
2023-05-02T00:51:59.441Z,2.75
2023-05-02T00:54:27.701Z,2.72
2023-05-02T00:56:55.694Z,3.35
2023-05-02T00:59:23.658Z,3.20
2023-05-02T01:02:03.811Z,3.20
2023-05-02T01:04:54.233Z,3.00
2023-05-02T01:07:55.839Z,3.00
2023-05-02T01:10:57.275Z,2.97
2023-05-02T01:13:32.106Z,3.17
2023-05-02T01:16:03.297Z,3.13
2023-05-02T01:18:36.005Z,3.00
2023-05-02T01:21:07.963Z,3.13
2023-05-02T01:23:48.494Z,3.30
2023-05-02T01:26:38.023Z,3.58
2023-05-02T01:29:08.539Z,3.80
2023-05-02T01:31:39.521Z,4.22
2023-05-02T01:34:10.405Z,3.72
2023-05-02T01:36:43.999Z,4.40
2023-05-02T01:39:15.807Z,4.05
2023-05-02T01:41:45.179Z,4.00
2023-05-02T01:44:15.301Z,4.38
2023-05-02T01:46:44.635Z,4.65
2023-05-02T01:49:12.984Z,4.55
2023-05-02T01:51:49.683Z,4.78
2023-05-02T01:54:20.326Z,4.63
2023-05-02T01:56:49.365Z,4.43
2023-05-02T01:59:19.932Z,4.43
2023-05-02T02:01:50.077Z,4.13
2023-05-02T02:04:20.777Z,4.70
2023-05-02T02:06:57.910Z,4.93
2023-05-02T02:09:26.796Z,4.80
2023-05-02T02:12:11.110Z,5.28
2023-05-02T02:14:46.388Z,5.32
2023-05-02T02:17:22.445Z,5.75
2023-05-02T02:19:54.210Z,6.22
2023-05-02T02:27:10.887Z,7.30
2023-05-02T02:29:38.959Z,6.40
2023-05-02T02:32:06.844Z,6.30
2023-05-02T02:34:35.917Z,6.65
2023-05-02T02:37:18.043Z,5.93
2023-05-02T02:40:23.712Z,6.43
2023-05-02T02:43:08.083Z,5.95
2023-05-02T02:45:36.755Z,6.60
2023-05-02T02:48:28.064Z,6.70
2023-05-02T02:51:01.997Z,5.90
2023-05-02T02:53:49.434Z,6.55
2023-05-02T02:56:25.983Z,6.78
2023-05-02T02:59:13.277Z,6.43
2023-05-02T03:01:46.904Z,6.72
2023-05-02T03:06:40.480Z,6.88
2023-05-02T03:09:18.675Z,6.78
2023-05-02T03:11:48.549Z,6.55
2023-05-02T03:14:17.070Z,7.53
2023-05-02T03:16:45.066Z,7.28
2023-05-02T03:21:43.933Z,6.63
2023-05-02T03:24:19.317Z,8.20
2023-05-02T03:26:50.175Z,8.05
2023-05-02T03:29:24.576Z,9.10
2023-05-02T03:31:52.580Z,8.70
2023-05-02T03:34:22.419Z,10.23
2023-05-02T03:36:51.937Z,9.52
2023-05-02T03:39:21.260Z,10.85
2023-05-02T03:41:49.817Z,10.00
2023-05-02T03:44:21.157Z,10.52
2023-05-02T03:46:49.101Z,9.32
2023-05-02T03:49:17.700Z,10.80
2023-05-02T03:51:46.893Z,10.35
2023-05-02T03:54:19.703Z,9.43
2023-05-02T03:56:48.259Z,12.20
2023-05-02T03:59:24.910Z,10.82
2023-05-02T04:01:53.402Z,11.18
2023-05-02T04:04:28.684Z,11.50
2023-05-02T04:06:56.639Z,11.63
2023-05-02T04:09:25.543Z,10.95
2023-05-02T04:11:58.386Z,10.93
2023-05-02T04:14:26.361Z,11.18
2023-05-02T04:16:56.143Z,11.00
2023-05-02T04:19:38.985Z,11.18
2023-05-02T04:22:07.022Z,10.90
2023-05-02T04:24:39.166Z,11.13
2023-05-02T04:27:07.978Z,10.60
2023-05-02T04:29:36.672Z,9.88
2023-05-02T04:32:10.005Z,11.02
2023-05-02T04:34:40.709Z,10.25
2023-05-02T04:37:09.094Z,10.43
2023-05-02T04:39:37.365Z,10.05
2023-05-02T04:42:10.389Z,9.55
2023-05-02T04:44:45.924Z,9.30
2023-05-02T04:47:14.815Z,8.43
2023-05-02T04:49:43.555Z,8.13
2023-05-02T04:52:11.310Z,8.30
2023-05-02T04:54:40.138Z,7.93
2023-05-02T04:57:09.969Z,8.20
2023-05-02T04:59:41.354Z,7.28
2023-05-02T05:02:12.771Z,6.97
2023-05-02T05:04:45.766Z,6.50
2023-05-02T05:07:13.595Z,6.03
2023-05-02T05:09:43.908Z,5.55
2023-05-02T05:12:11.956Z,5.00
2023-05-02T05:14:40.010Z,4.50
2023-05-02T05:17:08.408Z,4.40
2023-05-02T05:19:37.003Z,5.20
2023-05-02T05:22:07.627Z,4.72
2023-05-02T05:24:35.884Z,5.00
2023-05-02T05:27:03.678Z,4.90
2023-05-02T05:29:33.067Z,4.75
2023-05-02T05:32:01.063Z,5.05
2023-05-02T05:34:30.099Z,4.95
2023-05-02T05:37:00.877Z,4.55
2023-05-02T05:39:29.497Z,5.63
2023-05-02T05:41:59.222Z,5.32
2023-05-02T05:44:28.041Z,6.07
2023-05-02T05:46:56.817Z,6.05
2023-05-02T05:49:26.755Z,5.70
2023-05-02T05:51:54.924Z,6.00
2023-05-02T05:54:23.329Z,5.57
2023-05-02T05:56:51.041Z,5.65
2023-05-02T05:59:20.843Z,5.80
2023-05-02T06:01:49.286Z,5.60
2023-05-02T06:04:20.551Z,5.60
2023-05-02T06:06:51.652Z,5.75
2023-05-02T06:09:19.746Z,5.63
2023-05-02T06:11:50.798Z,5.60
2023-05-02T06:14:19.077Z,5.00
2023-05-02T06:16:49.483Z,4.75
2023-05-02T06:19:17.573Z,5.05
2023-05-02T06:21:45.289Z,5.05
2023-05-02T06:24:13.370Z,5.40
2023-05-02T06:26:41.083Z,5.20
2023-05-02T06:29:09.143Z,5.70
2023-05-02T06:31:37.002Z,5.32
2023-05-02T06:34:05.070Z,5.35
2023-05-02T06:36:33.064Z,5.88
2023-05-02T06:39:01.568Z,5.70
2023-05-02T06:41:29.249Z,5.68
2023-05-02T06:43:57.750Z,5.57
2023-05-02T06:46:29.493Z,5.28
2023-05-02T06:48:57.680Z,5.55
2023-05-02T06:52:06.772Z,5.78
2023-05-02T06:54:35.001Z,6.25
2023-05-02T06:57:03.034Z,5.65
2023-05-02T06:59:31.319Z,6.15
2023-05-02T07:01:59.075Z,5.88
2023-05-02T07:04:30.050Z,5.65
2023-05-02T07:06:57.805Z,6.77
2023-05-02T07:09:25.841Z,6.43
2023-05-02T07:11:53.463Z,6.50
2023-05-02T07:14:21.881Z,6.30
2023-05-02T07:16:49.702Z,6.72
2023-05-02T07:19:17.808Z,7.15
2023-05-02T07:21:45.519Z,6.70
2023-05-02T07:24:13.683Z,6.30
2023-05-02T07:26:41.506Z,6.10
2023-05-02T07:29:09.841Z,5.90
2023-05-02T07:31:37.699Z,5.80
2023-05-02T07:34:05.708Z,6.72
2023-05-02T07:36:33.407Z,6.80
2023-05-02T07:39:01.448Z,7.10
2023-05-02T07:41:29.224Z,7.38
2023-05-02T07:43:59.367Z,6.78
2023-05-02T07:46:27.185Z,7.57
2023-05-02T07:48:55.921Z,7.50
2023-05-02T07:51:23.725Z,6.22
2023-05-02T07:53:55.921Z,6.00
2023-05-02T07:56:24.233Z,6.68
2023-05-02T07:58:52.313Z,6.65
2023-05-02T08:01:20.490Z,6.28
2023-05-02T08:03:51.061Z,6.55
2023-05-02T08:06:19.361Z,6.40
2023-05-02T08:08:47.669Z,7.25
2023-05-02T08:11:15.406Z,7.05
2023-05-02T08:13:43.394Z,7.90
2023-05-02T08:16:11.424Z,7.43
2023-05-02T08:18:39.501Z,7.85
2023-05-02T08:21:07.360Z,7.32
2023-05-02T08:23:35.915Z,6.43
2023-05-02T08:26:04.471Z,6.47
2023-05-02T08:28:32.665Z,5.85
2023-05-02T08:31:00.434Z,5.05
2023-05-02T08:33:28.398Z,4.30
2023-05-02T08:35:56.252Z,3.88
2023-05-02T08:38:24.294Z,4.13
2023-05-02T08:40:52.063Z,3.05
2023-05-02T08:43:20.875Z,3.70
2023-05-02T08:45:52.728Z,3.22
2023-05-02T08:48:23.558Z,3.35
2023-05-02T08:50:53.981Z,3.63
2023-05-02T08:53:24.064Z,3.58
2023-05-02T08:55:52.148Z,3.30
2023-05-02T08:58:20.104Z,3.67
2023-05-02T09:00:49.452Z,3.65
2023-05-02T09:03:34.362Z,3.47
2023-05-02T09:06:29.443Z,3.95
2023-05-02T09:09:00.558Z,3.38
2023-05-02T09:11:29.121Z,3.85
2023-05-02T09:13:59.072Z,3.00
2023-05-02T09:16:27.259Z,3.58
2023-05-02T09:18:57.547Z,3.50
2023-05-02T09:21:34.887Z,3.50
2023-05-02T09:24:14.187Z,3.30
2023-05-02T09:26:41.998Z,3.30
2023-05-02T09:29:10.042Z,3.40
2023-05-02T09:31:54.770Z,3.75
2023-05-02T09:34:26.406Z,3.20
2023-05-02T09:36:54.757Z,3.30
2023-05-02T09:39:29.197Z,3.10
2023-05-02T09:41:57.942Z,2.88
2023-05-02T09:44:27.606Z,3.15
2023-05-02T09:47:02.254Z,3.10
2023-05-02T09:49:41.077Z,3.00
2023-05-02T09:52:13.682Z,2.70
2023-05-02T09:54:42.226Z,2.95
2023-05-02T09:57:11.216Z,3.30
2023-05-02T09:59:42.737Z,3.03
2023-05-02T10:02:12.040Z,3.00
2023-05-02T10:04:42.066Z,3.50
2023-05-02T10:07:13.578Z,3.38
2023-05-02T10:12:15.586Z,3.10
2023-05-02T10:14:50.931Z,3.53
2023-05-02T10:17:28.176Z,3.03
2023-05-02T10:20:06.471Z,3.30
2023-05-02T10:22:35.429Z,2.80
2023-05-02T10:25:04.686Z,3.00
2023-05-02T10:27:33.311Z,3.40
2023-05-02T10:30:04.402Z,3.00
2023-05-02T10:32:34.782Z,3.13
2023-05-02T10:35:05.344Z,3.30
2023-05-02T10:37:37.100Z,3.20
2023-05-02T10:40:06.411Z,3.15
2023-05-02T10:42:39.374Z,3.35
2023-05-02T10:45:34.463Z,3.22
2023-05-02T10:48:15.574Z,2.90
2023-05-02T10:50:46.523Z,3.00
2023-05-02T10:53:37.567Z,3.87
2023-05-02T10:56:21.814Z,4.13
2023-05-02T10:58:52.166Z,3.75
2023-05-02T11:01:29.000Z,4.18
2023-05-02T11:04:11.139Z,3.60
2023-05-02T11:06:59.596Z,3.35
2023-05-02T11:09:31.322Z,3.38
2023-05-02T11:12:01.522Z,3.50
2023-05-02T11:14:38.251Z,3.47
2023-05-02T11:17:07.120Z,4.05
2023-05-02T11:19:37.677Z,3.80
2023-05-02T11:22:17.994Z,3.20
2023-05-02T11:24:47.966Z,3.00
2023-05-02T11:27:33.889Z,3.50
2023-05-02T11:30:10.053Z,3.05
2023-05-02T11:32:47.745Z,3.30
2023-05-02T11:35:20.502Z,2.65
2023-05-02T11:38:02.051Z,4.22
2023-05-02T11:40:31.281Z,3.05
2023-05-02T11:43:00.641Z,3.45
2023-05-02T11:45:39.305Z,2.78
2023-05-02T11:48:08.546Z,3.55
2023-05-02T11:50:49.370Z,3.53
2023-05-02T11:53:23.913Z,3.30
2023-05-02T11:55:53.875Z,3.00
2023-05-02T11:58:29.704Z,3.83
2023-05-02T12:00:57.626Z,3.38
2023-05-02T12:03:28.275Z,3.00
2023-05-02T12:05:59.841Z,2.90
2023-05-02T12:08:29.890Z,3.22
2023-05-02T12:10:57.729Z,3.50
2023-05-02T12:13:26.826Z,3.55
2023-05-02T12:15:56.483Z,3.40
2023-05-02T12:18:27.174Z,4.18
2023-05-02T12:20:56.414Z,3.30
2023-05-02T12:23:26.754Z,3.17
2023-05-02T12:25:56.974Z,3.17
2023-05-02T12:28:25.197Z,2.90
2023-05-02T12:30:53.259Z,3.13
2023-05-02T12:33:26.636Z,3.67
2023-05-02T12:35:54.418Z,3.03
2023-05-02T12:38:25.819Z,3.08
2023-05-02T12:40:58.528Z,3.13
2023-05-02T12:43:26.476Z,3.30
2023-05-02T12:46:10.240Z,3.33
2023-05-02T12:48:39.333Z,3.60
2023-05-02T12:51:07.457Z,4.25
2023-05-02T12:53:43.869Z,4.15
2023-05-02T12:56:12.032Z,6.13
2023-05-02T12:58:44.808Z,3.60
2023-05-02T13:01:13.821Z,3.55
2023-05-02T13:03:43.517Z,3.35
2023-05-02T13:06:11.483Z,4.22
2023-05-02T13:08:39.813Z,3.20
2023-05-02T13:11:07.719Z,3.35
2023-05-02T13:13:36.078Z,3.30
2023-05-02T13:16:04.088Z,3.75
2023-05-02T13:18:32.406Z,3.08
2023-05-02T13:21:00.169Z,4.38
2023-05-02T13:23:28.278Z,4.35
2023-05-02T13:25:59.074Z,3.53
2023-05-02T13:28:27.658Z,3.90
2023-05-02T13:30:55.501Z,3.25
2023-05-02T13:33:23.619Z,3.60
2023-05-02T13:35:51.319Z,3.85
2023-05-02T13:38:19.530Z,3.22
2023-05-02T13:40:47.505Z,3.65
2023-05-02T13:43:15.653Z,3.55
2023-05-02T13:45:43.616Z,4.05
2023-05-02T13:48:12.176Z,3.20
2023-05-02T13:50:40.030Z,3.10
2023-05-02T13:53:08.057Z,4.40
2023-05-02T13:55:35.769Z,3.30
2023-05-02T13:58:03.890Z,5.32
2023-05-02T14:00:32.157Z,3.33
2023-05-02T14:03:00.225Z,3.65
2023-05-02T14:05:28.042Z,4.10
2023-05-02T14:07:58.316Z,3.65
2023-05-02T14:10:26.076Z,3.35
2023-05-02T14:12:54.213Z,3.85
2023-05-02T14:15:22.241Z,3.10
2023-05-02T14:17:50.403Z,3.50
2023-05-02T14:20:18.223Z,3.17
2023-05-02T14:22:46.368Z,3.25
2023-05-02T14:25:19.766Z,10.88
2023-05-02T14:27:48.129Z,3.78
2023-05-02T14:30:16.209Z,4.22
2023-05-02T14:32:44.308Z,3.38
2023-05-02T14:35:12.292Z,3.08
2023-05-02T14:37:40.401Z,2.75
2023-05-02T14:40:09.187Z,3.00
2023-05-02T14:42:37.355Z,3.22
2023-05-02T14:45:05.503Z,3.53
2023-05-02T14:47:33.833Z,3.53
2023-05-02T14:50:04.700Z,4.13
2023-05-02T14:55:01.498Z,3.38
2023-05-02T14:57:31.179Z,3.50
2023-05-02T14:59:59.130Z,3.50
2023-05-02T15:02:27.335Z,3.33
2023-05-02T15:04:55.359Z,3.38
2023-05-02T15:07:23.559Z,3.67
2023-05-02T15:09:51.500Z,3.53
2023-05-02T15:12:19.623Z,3.80
2023-05-02T15:14:47.396Z,3.65
2023-05-02T15:17:15.609Z,3.58
2023-05-02T15:19:43.370Z,4.07
2023-05-02T15:22:11.482Z,3.72
2023-05-02T15:24:41.395Z,3.35
2023-05-02T15:27:09.700Z,3.47
2023-05-02T15:29:37.525Z,3.47
2023-05-02T15:32:05.746Z,3.40
2023-05-02T15:34:33.563Z,3.63
2023-05-02T15:37:02.066Z,3.50
2023-05-02T15:39:29.884Z,3.67
2023-05-02T15:41:58.444Z,3.20
2023-05-02T15:44:26.583Z,3.05
2023-05-02T15:46:55.996Z,3.60
2023-05-02T15:49:24.984Z,3.10
2023-05-02T15:51:53.040Z,2.92
2023-05-02T15:54:20.815Z,3.20
2023-05-02T15:56:48.918Z,3.05
2023-05-02T16:01:49.792Z,3.08
2023-05-02T16:04:18.031Z,3.90
2023-05-02T16:06:46.298Z,3.30
2023-05-02T16:09:14.525Z,3.10
2023-05-02T16:11:42.436Z,3.30
2023-05-02T16:14:13.527Z,2.90
2023-05-02T16:16:41.252Z,4.25
2023-05-02T16:19:13.610Z,4.43
2023-05-02T16:21:42.325Z,3.30
2023-05-02T16:24:10.420Z,2.90
2023-05-02T16:26:38.134Z,3.50
2023-05-02T16:29:06.385Z,2.90
2023-05-02T16:31:35.167Z,3.03
2023-05-02T16:34:03.338Z,3.38
2023-05-02T16:36:31.762Z,2.90
2023-05-02T16:38:59.744Z,3.05
2023-05-02T16:41:27.560Z,2.83
2023-05-02T16:44:53.641Z,4.00
2023-05-02T16:47:22.112Z,6.07
2023-05-02T16:49:57.613Z,4.18
2023-05-02T16:52:26.555Z,7.57
2023-05-02T16:57:22.443Z,4.13
2023-05-02T16:59:52.067Z,4.45
2023-05-02T17:02:22.328Z,4.03
2023-05-02T17:04:50.734Z,4.65
2023-05-02T17:07:18.928Z,3.58
2023-05-02T17:09:47.253Z,5.00
2023-05-02T17:12:18.712Z,3.08
2023-05-02T17:14:46.862Z,3.10
2023-05-02T17:17:15.029Z,4.05
2023-05-02T17:19:43.056Z,3.65
2023-05-02T17:22:10.834Z,3.55
2023-05-02T17:24:42.369Z,4.05
2023-05-02T17:27:11.450Z,2.80
2023-05-02T17:29:39.520Z,2.70
2023-05-02T17:32:07.302Z,2.28
2023-05-02T17:34:36.711Z,2.67
2023-05-02T17:37:04.569Z,4.00
2023-05-02T17:39:32.814Z,3.17
2023-05-02T17:42:01.403Z,2.78
2023-05-02T17:44:31.558Z,3.15
2023-05-02T17:46:59.308Z,3.10
2023-05-02T17:49:30.600Z,3.15
2023-05-02T17:51:58.330Z,3.92
2023-05-02T17:54:26.338Z,3.00
2023-05-02T17:56:55.562Z,2.70
2023-05-02T17:59:27.316Z,3.10
2023-05-02T18:01:55.210Z,2.83
2023-05-02T18:04:24.715Z,2.70
2023-05-02T18:06:52.532Z,2.80
2023-05-02T18:09:20.785Z,3.45
2023-05-02T18:11:48.531Z,2.80
2023-05-02T18:14:16.570Z,2.65
2023-05-02T18:16:48.512Z,2.60
2023-05-02T18:19:16.661Z,4.00
2023-05-02T18:21:45.077Z,3.58
2023-05-02T18:24:13.387Z,4.57
2023-05-02T18:26:41.323Z,4.07
2023-05-02T18:29:09.675Z,6.03
2023-05-02T18:31:40.362Z,3.97
2023-05-02T18:34:08.717Z,2.78
2023-05-02T18:36:36.836Z,2.80
2023-05-02T18:39:06.021Z,3.03
2023-05-02T18:41:33.919Z,2.90
2023-05-02T18:44:05.258Z,3.17
2023-05-02T18:46:33.203Z,3.00
2023-05-02T18:49:01.718Z,4.13
2023-05-02T18:51:30.121Z,6.10
2023-05-02T18:53:58.105Z,8.98
2023-05-02T18:56:25.960Z,5.70
2023-05-02T18:58:56.468Z,12.52
2023-05-02T19:01:24.512Z,4.60
2023-05-02T19:03:53.666Z,5.68
2023-05-02T19:06:21.646Z,3.65
2023-05-02T19:08:49.754Z,4.13
2023-05-02T19:11:18.537Z,3.72
2023-05-02T19:13:46.551Z,3.75
2023-05-02T19:16:14.632Z,3.65
2023-05-02T19:18:43.557Z,3.78
2023-05-02T19:21:14.764Z,6.70
2023-05-02T19:26:12.524Z,9.05
2023-05-02T19:28:41.041Z,4.50
2023-05-02T19:31:10.348Z,6.05
2023-05-02T19:33:39.263Z,5.15
2023-05-02T19:36:09.301Z,6.50
2023-05-02T19:38:37.293Z,4.55
2023-05-02T19:41:05.115Z,4.60
2023-05-02T19:43:34.707Z,3.70
2023-05-02T19:46:02.474Z,3.97
2023-05-02T19:48:30.690Z,3.58
2023-05-02T19:51:00.944Z,4.35
2023-05-02T19:53:30.646Z,4.83
2023-05-02T19:55:58.943Z,4.20
2023-05-02T19:58:27.770Z,4.10
2023-05-02T20:00:56.168Z,4.07
2023-05-02T20:03:25.567Z,3.47
2023-05-02T20:05:53.471Z,4.00
2023-05-02T20:08:23.884Z,8.52
2023-05-02T20:10:51.749Z,7.07
2023-05-02T20:13:19.740Z,9.43
2023-05-02T20:15:50.684Z,7.35
2023-05-02T20:18:21.337Z,5.05
2023-05-02T20:20:49.143Z,3.97
2023-05-02T20:23:17.334Z,4.05
2023-05-02T20:25:47.560Z,3.85
2023-05-02T20:28:15.688Z,3.50
2023-05-02T20:30:44.172Z,4.32
2023-05-02T20:33:16.099Z,3.95
2023-05-02T20:35:45.458Z,4.07
2023-05-02T20:38:13.495Z,4.47
2023-05-02T20:40:43.446Z,4.70
2023-05-02T20:43:12.506Z,4.40
2023-05-02T20:45:40.477Z,3.72
2023-05-02T20:48:11.023Z,3.85
2023-05-02T20:50:38.803Z,3.85
2023-05-02T20:53:06.777Z,4.10
2023-05-02T20:55:35.861Z,3.55
2023-05-02T20:58:04.246Z,5.00
2023-05-02T21:00:32.313Z,7.15
2023-05-02T21:03:00.543Z,5.13
2023-05-02T21:05:28.674Z,4.00
2023-05-02T21:07:56.723Z,3.45
2023-05-02T21:10:27.660Z,3.45
2023-05-02T21:12:55.774Z,3.47
2023-05-02T21:15:23.544Z,4.10
2023-05-02T21:18:00.482Z,3.58
2023-05-02T21:20:28.450Z,4.07
2023-05-02T21:22:59.664Z,3.70
2023-05-02T21:25:27.473Z,3.88
2023-05-02T21:27:56.492Z,4.00
2023-05-02T21:30:24.594Z,3.85
2023-05-02T21:32:52.865Z,3.80
2023-05-02T21:35:22.917Z,3.53
2023-05-02T21:37:51.049Z,4.03
2023-05-02T21:40:18.953Z,3.83
2023-05-02T21:42:47.236Z,4.07
2023-05-02T21:45:15.082Z,3.47
2023-05-02T21:47:43.612Z,4.43
2023-05-02T21:50:11.562Z,4.07
2023-05-02T21:52:39.760Z,3.88
2023-05-02T21:55:07.986Z,3.88
2023-05-02T21:57:36.101Z,4.03
2023-05-02T22:00:06.086Z,4.40
2023-05-02T22:02:36.529Z,4.32
2023-05-02T22:05:04.822Z,5.07
2023-05-02T22:07:32.946Z,5.53
2023-05-02T22:10:01.015Z,5.68
2023-05-02T22:12:31.655Z,6.35
2023-05-02T22:14:59.461Z,5.68
2023-05-02T22:17:27.464Z,5.22
2023-05-02T22:19:55.472Z,5.25
2023-05-02T22:22:25.584Z,5.70
2023-05-02T22:24:53.297Z,5.07
2023-05-02T22:27:21.273Z,4.80
2023-05-02T22:29:48.974Z,4.72
2023-05-02T22:32:17.014Z,4.43
2023-05-02T22:34:44.845Z,4.55
2023-05-02T22:37:12.782Z,4.18
2023-05-02T22:39:40.799Z,4.47
2023-05-02T22:42:08.861Z,4.13
2023-05-02T22:44:50.696Z,4.57
2023-05-02T22:47:22.092Z,4.40
2023-05-02T22:49:53.465Z,4.43
2023-05-02T22:52:21.514Z,4.78
2023-05-02T22:54:49.189Z,4.03
2023-05-02T22:57:17.256Z,4.13
2023-05-02T22:59:44.952Z,4.60
2023-05-02T23:02:13.256Z,4.40
2023-05-02T23:04:41.414Z,4.15
2023-05-02T23:07:09.530Z,4.22
2023-05-02T23:09:37.433Z,3.95
2023-05-02T23:12:06.138Z,4.40
2023-05-02T23:14:34.270Z,4.03
2023-05-02T23:17:05.479Z,4.05
2023-05-02T23:19:33.617Z,3.47
2023-05-02T23:22:02.524Z,3.80
2023-05-02T23:24:33.123Z,3.65
2023-05-02T23:27:01.440Z,3.70
2023-05-02T23:29:29.442Z,3.30
2023-05-02T23:31:57.761Z,3.53
2023-05-02T23:34:26.155Z,3.75
2023-05-02T23:36:54.535Z,3.35
2023-05-02T23:39:22.448Z,3.22
2023-05-02T23:41:50.733Z,3.38
2023-05-02T23:44:18.717Z,3.70
2023-05-02T23:46:46.985Z,3.70
2023-05-02T23:49:14.920Z,3.85
2023-05-02T23:51:43.175Z,3.83
2023-05-02T23:54:11.160Z,3.58
2023-05-02T23:56:39.294Z,3.38
2023-05-02T23:59:07.130Z,3.70
